Timeline UpdatesTrip UpdatesNews PostsPvt Posts♥♥Travel TipsAdmin PostsConv PostsFollowed PostsChat RequestsBlog PostsPNR Posts

Disclaimer
Search
 
 
Tue Oct 21, 2014 12:39:01 ISTHomeTrainsΣChainsAtlasPNRForumGalleryNewsFAQTripsMembersLoginFeedback
No Recent News for this Train
Other Trains in the News **new
Latest...
Will be short originated from Faizabad from 27/11 to 04/12.
Mon Nov 25, 2013 (01:33PM)
⇐ Return Journey: Train# 54334

54333/Varanasi Lucknow Passenger (UnReserved)

Time-Table HAS CHANGED.
Sep 02 2014 (11:44PM)
Change Departure Station:
Change Arrival Station:
Post a Train Travel TipPost a Train Travel Tip **new
Post a Comment/Question/Picture/VideoPost a Comment/Question/Picture/Video
Pantry/Catering
???
RSA - Rake Sharing
Rake/Coach Composition
Loco
News    PNR    Forum    Time-Table    Availability    Fare Chart    Map    Arr/Dep History    Trips    Gallery    ΣChains    X/O    Timeline    
Travel Time: 7h 32m    35 halts    Distance: 248 km    Avg Speed: 32 km/hr
Type: Passenger
Zone: NR/Northern
Departs @ 04:05 (Avg 22m late)
Platform# 7
SMTWTFS
Varanasi Junction/BSB 
Arrives @ 11:37 (Avg 2h 31m late)
Platform# ???
SMTWTFS
Patranga/PTH 

35 halts. 36 intermediate Stations between Varanasi Junction and Patranga

Show ALL intermediate Stations  Show Old Time-Table

#TrkCodeStation NameX/OArrivesAvgDepartsAvgHaltPFDay#KmSpeedElevZoneAddress
1/==/BSBVaranasi Junction (9)»  -04:10 04:05+22710.03482mNRVaranasi 221002, Uttar Pradesh
2/==/SOPShivpur (3)  04:20 04:15+3504:21 04:16+351m--15.64881mNRVaranasi, Uttar Pradesh
3/==/BRPTBirapatti (2)X  04:29 04:24+1:1204:30 04:25+1:121m--112.05084mNRRd Varanasi Uttar Pradesh, Uttar Pradesh
4/==/BTPBabatpur (2)X  04:38 04:33+1:1204:39 04:34+1:141m--118.65484mNRSatomahua-Mangari Rd, Uttar Pradesh
5/==/PDRDPindra Road (2)X  04:45 04:40-04:46 04:41-1m--124.03981mNRSatomahua-Mangari Rd, Uttar Pradesh
6/==/KSFKhalispur (2)X  04:52 04:47+1:1404:53 04:48+1:161m--127.94483mNRPhulpur, Uttar Pradesh
7/==/TLMDTrilochan Mahdo (2)X  05:01 04:55+1:1505:02 04:56+1:151m--133.04683mNRNational Highway 56, Uttar Pradesh
8/==/JLLJalalGanj (2)  05:09 05:04+1:1505:10 05:05+1:171m--139.25187mNRJalalganj Railway Station, Uttar Pradesh
9/==/SIQSarkoni (2)X  05:17 05:12+1:1805:18 05:13+1:181m--145.13385mNRBandipur, Uttar Pradesh
10/==/ZBDZafarabad Junction (4)  05:29 05:24+1:2305:30 05:25+1:361m--151.22683mNRNational Highway 56, Uttar Pradesh
11|--|JNUJaunpur Junction (5)  05:39 05:40+1:2505:41+1:282 1m--157.73783mNRJaunpur, Uttar Pradesh
12|--|MGWNMahgawan Halt (1)  05:51+1:3705:52+1:371m1163.85184mNRDalhanpur, Uttar Pradesh
13|--|MIHMihrawan (1)  05:59+1:4806:00+1:591m1169.74988mNRChak Bhavani Shanker, Uttar Pradesh
14|--|MNKNManikalan Halt (1)X  06:07-06:08-1m1175.44285mNRNawab Yousuf Rd, Uttar Pradesh
15|--|KSKheta Sarai (1)  06:15+1:4806:16+2:061m1180.43088mNRKheta Sarai, Uttar Pradesh
16|--|SHGShahganj Junction (4)X  06:35 06:37+1:2506:43 06:39+1:328 2m1191.06090mNRShahganj, Uttar Pradesh
17|--|BWIBilwai (1)X  06:48 06:50+2:1606:49 06:51+2:171m11101.95591mNRBilwai, Uttar Pradesh
18|--|TLGRTulsi NagarX  06:57 06:58+1:3006:58 06:59+1:311m--1108.35191mNRNawab Yousuf Rd, Uttar Pradesh
19|--|MLPRMalipur (2)  07:07 07:08+1:3207:08 07:09+1:391m--1116.05992mNRMalipur, Uttar Pradesh
20|--|JFGJafarganj  07:18 07:19+1:4107:19 07:20+1:511m--1125.95092mNRNawab Yousuf Rd, Uttar Pradesh
21|--|ABPAkbarpur Junction (2)X  07:31+1:3807:33+1:402m--1135.15892mNRAkbarpur, Uttar Pradesh
22|--|KTHEKatahri  07:44 07:45+1:5107:45 07:46+1:511m--1146.76495mNRKatehri, Uttar Pradesh
23|--|GGJGoshainGanj (3)  07:55 07:56+1:3107:56 07:57+1:391m--1157.35698mNRGoshainganj, Uttar Pradesh
24|--|ULNUlna BhariX  08:05 08:06+2:0508:06 08:07+2:121m--1165.757104mNRNawab Yousuf Rd, Uttar Pradesh
25|--|BLGBilhar Ghat  08:15 08:16+2:1208:16 08:17+2:171m--1174.254104mNRNawab Yousuf Rd, Uttar Pradesh
26|--|DRGDarshannagar (2)  08:27 08:28+2:1708:28 08:29+2:221m--1184.127103mNRayodhya, Uttar Pradesh
27|--|AYAyodhya Junction (3)X  08:39 08:40+2:0608:40 08:41+2:211m--1189.01998mNRAyodhya, Uttar Pradesh
28|--|ACNDAcharya Narendra Dev Nagar  08:54 08:55+2:3708:55 08:56+2:491m--1193.52104mNRFaizabad, Uttar Pradesh
29|--|FDFaizabad Junction (5)X  10:00+1:3710:13+1:4713m--1195.743104mNRFaizabad, Uttar Pradesh
30|--|SLRPSalarpurX  10:24 10:25+2:1910:25 10:26+2:211m--1204.444106mNRJaganpur, Uttar Pradesh
31|--|SLWSohwalX  10:34 10:35+2:2110:35 10:36+2:221m--1211.051107mNRFaizabad Rd, Uttar Pradesh
32|--|DELODeorakot  10:44 10:45+2:2410:45 10:46+2:321m--1218.635110mNRDewracoat, Uttar Pradesh
33|--|BNMBaragaon  10:55 10:56+2:3010:56 10:57+2:321m--1224.643115mNRFaizabad Rd, Uttar Pradesh
34|--|GMUGauriyamau  11:02 11:03-11:03 11:04-1m--1228.833108mNRFaizabad Rd, Uttar Pradesh
35|--|RDLRudauli (2)  11:12 11:13+2:3011:13 11:14+2:341m--1233.833112mNRRudauli, Uttar Pradesh
36|--|RZNRauzagaon  11:23 11:24+2:3211:24 11:25+2:331m--1239.445111mNRFaizabad Rd, Uttar Pradesh
37|--|PTHPatranga•  11:36 11:37+2:3111:37 11:38+2:311m--1248.437113mNRFaizabad Rd, Uttar Pradesh
38|--|DYDDaryabad  11:51 11:52+2:2811:52 11:53+2:331m--1257.039116mNRFaizabad Rd, Uttar Pradesh
39|--|SYKSaidkhanpur  12:07 12:08+2:3012:08 12:09+2:351m--1266.738116mNRSaidkhanpur, Uttar Pradesh
40|--|SGJSafdarGanj  12:24 12:25+2:3112:25 12:26+2:441m--1276.847116mNRFaizabad Rd, Uttar Pradesh
41|--|RESRasauliXO  12:39 12:40+2:5912:40 12:41+2:031m--1287.73125mNRFaizabad Rd, Uttar Pradesh
42|--|BBKBarabanki Junction (4)X  15:09 15:05+1:0215:10+1:061 5m--1295.030122mNRPin-225001, Uttar Pradesh
43/==/SFHSafedabad (3)  15:25+1:3115:26+51m--1302.629120mNRBarabanki, Uttar Pradesh
44/==/JRRJugaur (1)X  15:33-15:34-1m11306.037123mNRCanal Rd, Uttar Pradesh
45/--/MLMalhaur (3)  15:44 15:43+915:45+121 2m--1311.424121mNRLucknow, Uttar Pradesh
46/==/LKOLucknow Charbagh NR (9)  16:15+1:12-41323.4-123mNR226004, Uttar Pradesh
Scroll to Top
Scroll to Bottom